createdAt,value
2018-08-22T00:00:10.840Z,1014.77
2018-08-22T00:01:10.811Z,1014.75
2018-08-22T00:02:10.787Z,1014.77
2018-08-22T00:03:10.756Z,1014.81
2018-08-22T00:04:10.729Z,1014.81
2018-08-22T00:05:10.701Z,1014.80
2018-08-22T00:06:10.673Z,1014.79
2018-08-22T00:07:10.655Z,1014.82
2018-08-22T00:08:10.619Z,1014.80
2018-08-22T00:09:10.592Z,1014.78
2018-08-22T00:10:10.564Z,1014.84
2018-08-22T00:11:10.535Z,1014.83
2018-08-22T00:12:10.507Z,1014.81
2018-08-22T00:13:10.482Z,1014.84
2018-08-22T00:14:10.452Z,1014.88
2018-08-22T00:15:10.466Z,1014.86
2018-08-22T00:16:10.397Z,1014.83
2018-08-22T00:17:10.371Z,1014.87
2018-08-22T00:18:10.342Z,1014.82
2018-08-22T00:19:10.313Z,1014.84
2018-08-22T00:20:10.304Z,1014.84
2018-08-22T00:21:10.258Z,1014.81
2018-08-22T00:22:10.233Z,1014.83
2018-08-22T00:23:10.202Z,1014.82
2018-08-22T00:24:10.177Z,1014.81
2018-08-22T00:25:10.147Z,1014.82
2018-08-22T00:26:10.120Z,1014.85
2018-08-22T00:27:10.092Z,1014.85
2018-08-22T00:28:10.065Z,1014.87
2018-08-22T00:29:10.097Z,1014.84
2018-08-22T00:30:10.011Z,1014.87
2018-08-22T00:31:09.981Z,1014.86
2018-08-22T00:32:09.954Z,1014.83
2018-08-22T00:33:09.927Z,1014.84
2018-08-22T00:34:09.899Z,1014.83
2018-08-22T00:35:09.870Z,1014.85
2018-08-22T00:36:09.842Z,1014.84
2018-08-22T00:37:09.815Z,1014.85
2018-08-22T00:38:09.792Z,1014.85
2018-08-22T00:39:09.760Z,1014.85
2018-08-22T00:40:09.732Z,1014.87
2018-08-22T00:41:09.704Z,1014.87
2018-08-22T00:42:09.677Z,1014.87
2018-08-22T00:43:09.648Z,1014.87
2018-08-22T00:44:09.618Z,1014.86
2018-08-22T00:45:09.598Z,1014.87
2018-08-22T00:46:09.566Z,1014.83
2018-08-22T00:47:09.537Z,1014.82
2018-08-22T00:48:09.512Z,1014.87
2018-08-22T00:49:09.482Z,1014.86
2018-08-22T00:50:09.456Z,1014.87
2018-08-22T00:51:09.426Z,1014.85
2018-08-22T00:52:09.400Z,1014.89
2018-08-22T00:53:09.372Z,1014.88
2018-08-22T00:54:09.343Z,1014.87
2018-08-22T00:55:09.318Z,1014.87
2018-08-22T00:56:10.275Z,1014.89
2018-08-22T00:57:09.261Z,1014.84
2018-08-22T00:58:09.233Z,1014.88
2018-08-22T00:59:09.205Z,1014.84
2018-08-22T01:00:09.179Z,1014.88
2018-08-22T01:01:09.151Z,1014.86
2018-08-22T01:02:09.126Z,1014.87
2018-08-22T01:03:09.093Z,1014.84
2018-08-22T01:04:09.067Z,1014.84
2018-08-22T01:05:09.044Z,1014.85
2018-08-22T01:06:09.012Z,1014.84
2018-08-22T01:07:08.985Z,1014.85
2018-08-22T01:08:08.956Z,1014.80
2018-08-22T01:09:08.928Z,1014.83
2018-08-22T01:10:08.901Z,1014.86
2018-08-22T01:11:08.873Z,1014.89
2018-08-22T01:12:08.845Z,1014.86
2018-08-22T01:13:08.818Z,1014.84
2018-08-22T01:14:08.791Z,1014.87
2018-08-22T01:15:08.760Z,1014.85
2018-08-22T01:16:08.733Z,1014.82
2018-08-22T01:17:08.708Z,1014.84
2018-08-22T01:18:08.679Z,1014.83
2018-08-22T01:19:08.651Z,1014.80
2018-08-22T01:20:08.626Z,1014.82
2018-08-22T01:21:08.596Z,1014.83
2018-08-22T01:22:08.568Z,1014.80
2018-08-22T01:23:08.542Z,1014.81
2018-08-22T01:24:08.512Z,1014.80
2018-08-22T01:25:08.487Z,1014.77
2018-08-22T01:26:08.459Z,1014.77
2018-08-22T01:27:08.430Z,1014.79
2018-08-22T01:28:08.402Z,1014.73
2018-08-22T01:29:09.282Z,1014.77
2018-08-22T01:30:08.347Z,1014.77
2018-08-22T01:31:08.319Z,1014.80
2018-08-22T01:32:08.292Z,1014.81
2018-08-22T01:33:08.264Z,1014.81
2018-08-22T01:34:08.236Z,1014.85
2018-08-22T01:35:08.208Z,1014.80
2018-08-22T01:36:08.181Z,1014.78
2018-08-22T01:37:08.151Z,1014.79
2018-08-22T01:38:08.126Z,1014.79
2018-08-22T01:39:08.103Z,1014.83
2018-08-22T01:40:08.070Z,1014.85
2018-08-22T01:41:08.043Z,1014.82
2018-08-22T01:42:08.017Z,1014.81
2018-08-22T01:43:07.987Z,1014.84
2018-08-22T01:44:07.959Z,1014.81
2018-08-22T01:45:07.932Z,1014.82
2018-08-22T01:46:07.905Z,1014.81
2018-08-22T01:47:07.877Z,1014.83
2018-08-22T01:48:07.849Z,1014.73
2018-08-22T01:49:07.822Z,1014.75
2018-08-22T01:50:07.794Z,1014.75
2018-08-22T01:51:07.765Z,1014.72
2018-08-22T01:52:07.739Z,1014.72
2018-08-22T01:53:07.711Z,1014.73
2018-08-22T01:54:07.684Z,1014.73
2018-08-22T01:55:07.657Z,1014.72
2018-08-22T01:56:07.629Z,1014.68
2018-08-22T01:57:07.601Z,1014.69
2018-08-22T01:58:07.575Z,1014.69
2018-08-22T01:59:07.549Z,1014.63
2018-08-22T02:00:07.517Z,1014.64
2018-08-22T02:01:07.491Z,1014.63
2018-08-22T02:02:07.465Z,1014.63
2018-08-22T02:03:07.435Z,1014.67
2018-08-22T02:04:07.408Z,1014.67
2018-08-22T02:05:07.380Z,1014.64
2018-08-22T02:06:07.353Z,1014.63
2018-08-22T02:07:07.324Z,1014.63
2018-08-22T02:08:07.311Z,1014.63
2018-08-22T02:09:07.270Z,1014.63
2018-08-22T02:10:07.243Z,1014.65
2018-08-22T02:11:07.214Z,1014.63
2018-08-22T02:12:07.187Z,1014.62
2018-08-22T02:13:07.160Z,1014.60
2018-08-22T02:14:07.132Z,1014.63
2018-08-22T02:15:07.103Z,1014.61
2018-08-22T02:16:07.076Z,1014.61
2018-08-22T02:17:07.053Z,1014.60
2018-08-22T02:18:07.022Z,1014.60
2018-08-22T02:19:06.994Z,1014.59
2018-08-22T02:20:06.965Z,1014.57
2018-08-22T02:21:06.938Z,1014.55
2018-08-22T02:22:06.911Z,1014.58
2018-08-22T02:23:06.883Z,1014.57
2018-08-22T02:24:06.855Z,1014.59
2018-08-22T02:25:06.863Z,1014.57
2018-08-22T02:26:06.802Z,1014.57
2018-08-22T02:27:06.774Z,1014.54
2018-08-22T02:28:06.746Z,1014.55
2018-08-22T02:29:06.720Z,1014.56
2018-08-22T02:30:06.692Z,1014.60
2018-08-22T02:31:06.662Z,1014.58
2018-08-22T02:32:06.637Z,1014.54
2018-08-22T02:33:06.606Z,1014.57
2018-08-22T02:34:06.580Z,1014.56
2018-08-22T02:35:06.550Z,1014.57
2018-08-22T02:36:06.524Z,1014.54
2018-08-22T02:37:06.497Z,1014.52
2018-08-22T02:38:06.468Z,1014.56
2018-08-22T02:39:06.441Z,1014.55
2018-08-22T02:40:07.238Z,1014.55
2018-08-22T02:41:06.388Z,1014.58
2018-08-22T02:42:06.358Z,1014.58
2018-08-22T02:43:06.334Z,1014.56
2018-08-22T02:44:06.305Z,1014.56
2018-08-22T02:45:06.276Z,1014.54
2018-08-22T02:46:06.248Z,1014.57
2018-08-22T02:47:06.219Z,1014.56
2018-08-22T02:48:06.192Z,1014.56
2018-08-22T02:49:06.165Z,1014.52
2018-08-22T02:50:06.135Z,1014.53
2018-08-22T02:51:06.107Z,1014.54
2018-08-22T02:52:06.082Z,1014.49
2018-08-22T02:53:06.054Z,1014.45
2018-08-22T02:54:06.026Z,1014.47
2018-08-22T02:55:05.997Z,1014.47
2018-08-22T02:56:05.972Z,1014.44
2018-08-22T02:57:05.941Z,1014.43
2018-08-22T02:58:05.916Z,1014.46
2018-08-22T02:59:05.886Z,1014.44
2018-08-22T03:00:05.861Z,1014.46
2018-08-22T03:01:05.831Z,1014.45
2018-08-22T03:02:05.804Z,1014.44
2018-08-22T03:03:05.780Z,1014.41
2018-08-22T03:04:05.747Z,1014.41
2018-08-22T03:05:05.719Z,1014.38
2018-08-22T03:06:05.692Z,1014.40
2018-08-22T03:07:06.299Z,1014.40
2018-08-22T03:08:05.636Z,1014.41
2018-08-22T03:09:05.609Z,1014.40
2018-08-22T03:10:05.580Z,1014.42
2018-08-22T03:11:05.556Z,1014.40
2018-08-22T03:12:05.525Z,1014.42
2018-08-22T03:13:05.497Z,1014.39
2018-08-22T03:14:05.469Z,1014.37
2018-08-22T03:15:05.441Z,1014.38
2018-08-22T03:16:05.415Z,1014.34
2018-08-22T03:17:05.385Z,1014.34
2018-08-22T03:18:05.357Z,1014.32
2018-08-22T03:19:05.329Z,1014.33
2018-08-22T03:20:05.302Z,1014.33
2018-08-22T03:21:05.274Z,1014.30
2018-08-22T03:22:05.247Z,1014.34
2018-08-22T03:23:05.218Z,1014.38
2018-08-22T03:24:05.190Z,1014.39
2018-08-22T03:25:05.167Z,1014.40
2018-08-22T03:26:05.183Z,1014.35
2018-08-22T03:27:05.107Z,1014.31
2018-08-22T03:28:05.080Z,1014.32
2018-08-22T03:29:05.052Z,1014.33
2018-08-22T03:30:05.024Z,1014.31
2018-08-22T03:31:04.995Z,1014.32
2018-08-22T03:32:04.969Z,1014.32
2018-08-22T03:33:04.941Z,1014.33
2018-08-22T03:34:04.915Z,1014.31
2018-08-22T03:35:04.883Z,1014.33
2018-08-22T03:36:04.857Z,1014.33
2018-08-22T03:37:04.827Z,1014.37
2018-08-22T03:38:04.804Z,1014.37
2018-08-22T03:39:04.774Z,1014.41
2018-08-22T03:40:04.744Z,1014.41
2018-08-22T03:41:04.719Z,1014.43
2018-08-22T03:42:04.687Z,1014.41
2018-08-22T03:43:04.659Z,1014.39
2018-08-22T03:44:04.633Z,1014.39
2018-08-22T03:45:04.608Z,1014.38
2018-08-22T03:46:04.575Z,1014.40
2018-08-22T03:47:04.550Z,1014.36
2018-08-22T03:48:04.519Z,1014.38
2018-08-22T03:49:04.490Z,1014.38
2018-08-22T03:50:04.465Z,1014.37
2018-08-22T03:51:04.435Z,1014.36
2018-08-22T03:52:04.407Z,1014.34
2018-08-22T03:53:04.379Z,1014.33
2018-08-22T03:54:04.353Z,1014.35
2018-08-22T03:55:04.325Z,1014.35
2018-08-22T03:56:04.295Z,1014.33
2018-08-22T03:57:04.267Z,1014.33
2018-08-22T03:58:04.240Z,1014.33
2018-08-22T03:59:04.211Z,1014.34
2018-08-22T04:00:04.184Z,1014.39
2018-08-22T04:01:04.156Z,1014.38
2018-08-22T04:02:04.130Z,1014.38
2018-08-22T04:03:04.102Z,1014.38
2018-08-22T04:04:04.071Z,1014.38
2018-08-22T04:05:04.044Z,1014.37
2018-08-22T04:06:04.015Z,1014.37
2018-08-22T04:07:03.986Z,1014.35
2018-08-22T04:08:03.960Z,1014.34
2018-08-22T04:09:03.933Z,1014.35
2018-08-22T04:10:03.908Z,1014.34
2018-08-22T04:11:03.875Z,1014.35
2018-08-22T04:12:03.847Z,1014.35
2018-08-22T04:13:03.822Z,1014.36
2018-08-22T04:14:03.792Z,1014.36
2018-08-22T04:15:03.764Z,1014.37
2018-08-22T04:16:03.736Z,1014.36
2018-08-22T04:17:03.709Z,1014.36
2018-08-22T04:18:03.680Z,1014.34
2018-08-22T04:19:03.651Z,1014.33
2018-08-22T04:20:03.629Z,1014.32
2018-08-22T04:21:03.596Z,1014.30
2018-08-22T04:22:03.568Z,1014.33
2018-08-22T04:23:03.539Z,1014.35
2018-08-22T04:24:03.510Z,1014.34
2018-08-22T04:25:03.482Z,1014.33
2018-08-22T04:26:03.456Z,1014.35
2018-08-22T04:27:03.427Z,1014.35
2018-08-22T04:28:03.401Z,1014.35
2018-08-22T04:29:03.372Z,1014.33
2018-08-22T04:30:03.343Z,1014.38
2018-08-22T04:31:03.328Z,1014.41
2018-08-22T04:32:03.288Z,1014.39
2018-08-22T04:33:04.810Z,1014.39
2018-08-22T04:34:03.232Z,1014.38
2018-08-22T04:35:03.204Z,1014.38
2018-08-22T04:36:03.176Z,1014.36
2018-08-22T04:37:03.148Z,1014.37
2018-08-22T04:38:03.124Z,1014.35
2018-08-22T04:39:03.093Z,1014.34
2018-08-22T04:40:03.066Z,1014.32
2018-08-22T04:41:03.036Z,1014.34
2018-08-22T04:42:03.011Z,1014.34
2018-08-22T04:43:02.982Z,1014.29
2018-08-22T04:44:02.952Z,1014.32
2018-08-22T04:45:02.927Z,1014.32
2018-08-22T04:46:02.898Z,1014.34
2018-08-22T04:47:02.868Z,1014.32
2018-08-22T04:48:02.892Z,1014.30
2018-08-22T04:49:02.814Z,1014.31
2018-08-22T04:50:02.786Z,1014.34
2018-08-22T04:51:02.759Z,1014.31
2018-08-22T04:52:02.732Z,1014.29
2018-08-22T04:53:02.703Z,1014.31
2018-08-22T04:54:02.677Z,1014.29
2018-08-22T04:55:02.649Z,1014.29
2018-08-22T04:56:02.621Z,1014.35
2018-08-22T04:57:02.593Z,1014.32
2018-08-22T04:58:02.570Z,1014.35
2018-08-22T04:59:02.538Z,1014.34
2018-08-22T05:00:02.513Z,1014.41
2018-08-22T05:01:10.401Z,1014.39
2018-08-22T05:02:55.807Z,1014.33
2018-08-22T05:03:55.757Z,1014.24
2018-08-22T05:05:49.064Z,1014.19
2018-08-22T05:06:49.033Z,1014.19
2018-08-22T05:08:42.358Z,1014.15
2018-08-22T05:09:42.308Z,1014.14
2018-08-22T05:11:35.146Z,1014.17
2018-08-22T05:12:35.716Z,1014.19
2018-08-22T05:14:28.688Z,1014.21
2018-08-22T05:15:28.659Z,1014.18
2018-08-22T05:17:21.483Z,1014.17
2018-08-22T05:18:21.439Z,1014.13
2018-08-22T05:20:14.770Z,1014.16
2018-08-22T05:21:14.714Z,1014.15
2018-08-22T05:23:07.528Z,1014.16
2018-08-22T05:24:07.496Z,1014.15
2018-08-22T05:26:00.621Z,1014.17
2018-08-22T05:27:00.569Z,1014.15
2018-08-22T05:28:53.378Z,1014.13
2018-08-22T05:29:53.348Z,1014.09
2018-08-22T05:31:46.184Z,1014.11
2018-08-22T05:32:46.128Z,1014.12
2018-08-22T05:34:39.069Z,1014.12
2018-08-22T05:35:38.906Z,1014.14
2018-08-22T05:37:32.044Z,1014.13
2018-08-22T05:38:31.984Z,1014.10
2018-08-22T05:40:24.793Z,1014.14
2018-08-22T05:41:24.763Z,1014.14
2018-08-22T05:43:18.089Z,1014.13
2018-08-22T05:44:18.061Z,1014.14
2018-08-22T05:46:11.364Z,1014.16
2018-08-22T05:47:11.315Z,1014.15
2018-08-22T05:49:04.453Z,1014.16
2018-08-22T05:50:04.391Z,1014.14
2018-08-22T05:51:57.217Z,1014.12
2018-08-22T05:52:57.176Z,1014.11
2018-08-22T05:54:50.007Z,1014.11
2018-08-22T05:55:49.955Z,1014.12
2018-08-22T05:57:42.800Z,1014.14
2018-08-22T05:58:42.745Z,1014.13
2018-08-22T06:00:35.872Z,1014.17
2018-08-22T06:01:35.816Z,1014.14
2018-08-22T06:03:29.145Z,1014.17
2018-08-22T06:04:29.099Z,1014.17
2018-08-22T06:06:22.412Z,1014.15
2018-08-22T06:07:22.379Z,1014.18
2018-08-22T06:09:16.068Z,1014.10
2018-08-22T06:10:15.987Z,1014.14
2018-08-22T06:12:09.260Z,1014.12
2018-08-22T06:13:09.231Z,1014.18
2018-08-22T06:15:02.846Z,1014.15
2018-08-22T06:16:02.798Z,1014.15
2018-08-22T06:17:56.427Z,1014.11
2018-08-22T06:18:56.386Z,1014.12
2018-08-22T06:20:49.728Z,1014.06
2018-08-22T06:21:49.662Z,1014.09
2018-08-22T06:23:44.270Z,1014.07
2018-08-22T06:24:44.253Z,1014.09
2018-08-22T06:26:37.586Z,1014.05
2018-08-22T06:27:37.533Z,1014.05
2018-08-22T06:29:30.346Z,1014.04
2018-08-22T06:30:30.352Z,1014.07
2018-08-22T06:32:23.663Z,1014.08
2018-08-22T06:33:23.624Z,1014.08
2018-08-22T06:35:17.221Z,1014.09
2018-08-22T06:36:17.243Z,1014.11
2018-08-22T06:38:19.169Z,1014.09
2018-08-22T06:39:12.557Z,1014.08
2018-08-22T06:40:11.976Z,1014.07
2018-08-22T06:41:11.815Z,1014.12
2018-08-22T06:42:11.406Z,1014.07
2018-08-22T06:43:12.348Z,1014.07
2018-08-22T06:44:11.077Z,1014.05
2018-08-22T06:45:11.629Z,1014.09
2018-08-22T06:46:11.477Z,1014.04
2018-08-22T06:47:11.358Z,1013.98
2018-08-22T06:48:10.958Z,1014.03
2018-08-22T06:49:10.710Z,1014.03
2018-08-22T06:50:10.707Z,1014.02
2018-08-22T06:51:10.829Z,1014.02
2018-08-22T06:52:10.653Z,1014.00
2018-08-22T06:53:13.601Z,1014.05
2018-08-22T06:54:10.631Z,1014.05
2018-08-22T06:55:10.571Z,1014.01
2018-08-22T06:56:10.637Z,1014.02
2018-08-22T06:57:10.890Z,1014.06
2018-08-22T06:58:10.500Z,1013.99
2018-08-22T06:59:10.613Z,1013.98
2018-08-22T07:00:10.450Z,1013.94
2018-08-22T07:01:10.427Z,1014.01
2018-08-22T07:02:10.407Z,1013.97
2018-08-22T07:03:10.382Z,1013.97
2018-08-22T07:04:10.359Z,1013.97
2018-08-22T07:05:10.333Z,1014.00
2018-08-22T07:06:12.104Z,1013.96
2018-08-22T07:07:10.293Z,1013.95
2018-08-22T07:08:10.425Z,1013.98
2018-08-22T07:09:10.242Z,1013.95
2018-08-22T07:10:10.218Z,1013.91
2018-08-22T07:11:10.195Z,1013.96
2018-08-22T07:12:10.175Z,1013.93
2018-08-22T07:13:10.523Z,1013.91
2018-08-22T07:14:10.314Z,1013.97
2018-08-22T07:15:10.504Z,1013.92
2018-08-22T07:16:10.664Z,1013.96
2018-08-22T07:17:10.321Z,1013.93
2018-08-22T07:18:13.956Z,1013.97
2018-08-22T07:19:10.214Z,1013.97
2018-08-22T07:20:10.112Z,1013.94
2018-08-22T07:21:10.455Z,1013.95
2018-08-22T07:22:10.009Z,1013.94
2018-08-22T07:23:09.919Z,1013.95
2018-08-22T07:24:10.169Z,1013.90
2018-08-22T07:25:09.873Z,1013.94
2018-08-22T07:26:09.853Z,1013.96
2018-08-22T07:27:09.832Z,1013.98
2018-08-22T07:28:09.809Z,1013.96
2018-08-22T07:29:11.610Z,1013.95
2018-08-22T07:30:09.826Z,1013.95
2018-08-22T07:31:09.741Z,1013.93
2018-08-22T07:32:09.718Z,1013.95
2018-08-22T07:33:09.696Z,1013.96
2018-08-22T07:34:09.679Z,1013.93
2018-08-22T07:35:09.653Z,1013.90
2018-08-22T07:36:09.629Z,1013.88
2018-08-22T07:37:09.601Z,1013.87
2018-08-22T07:38:09.586Z,1013.86
2018-08-22T07:39:09.563Z,1013.88
2018-08-22T07:40:09.534Z,1013.87
2018-08-22T07:41:09.520Z,1013.86
2018-08-22T07:42:11.112Z,1013.85
2018-08-22T07:43:09.477Z,1013.81
2018-08-22T07:44:09.515Z,1013.81
2018-08-22T07:45:09.430Z,1013.82
2018-08-22T07:46:09.409Z,1013.84
2018-08-22T07:47:09.403Z,1013.85
2018-08-22T07:48:09.366Z,1013.82
2018-08-22T07:49:09.349Z,1013.85
2018-08-22T07:50:11.198Z,1013.81
2018-08-22T07:51:09.310Z,1013.83
2018-08-22T07:52:12.544Z,1013.85
2018-08-22T07:53:09.806Z,1013.88
2018-08-22T07:54:09.238Z,1013.87
2018-08-22T07:55:09.314Z,1013.83
2018-08-22T07:56:09.197Z,1013.84
2018-08-22T07:57:09.241Z,1013.87
2018-08-22T07:58:10.758Z,1013.84
2018-08-22T07:59:09.274Z,1013.84
2018-08-22T08:00:09.196Z,1013.89
2018-08-22T08:01:13.272Z,1013.88
2018-08-22T08:02:10.610Z,1013.86
2018-08-22T08:03:09.044Z,1013.86
2018-08-22T08:05:09.457Z,1013.88
2018-08-22T08:06:09.250Z,1013.89
2018-08-22T08:07:09.003Z,1013.89
2018-08-22T08:08:08.980Z,1013.90
2018-08-22T08:09:09.322Z,1013.88
2018-08-22T08:10:08.896Z,1013.91
2018-08-22T08:11:09.789Z,1013.86
2018-08-22T08:12:11.793Z,1013.87
2018-08-22T08:13:08.994Z,1013.89
2018-08-22T08:14:08.814Z,1013.87
2018-08-22T08:15:09.052Z,1013.88
2018-08-22T08:16:08.766Z,1013.83
2018-08-22T08:17:10.676Z,1013.86
2018-08-22T08:18:08.729Z,1013.81
2018-08-22T08:19:09.424Z,1013.85
2018-08-22T08:20:08.688Z,1013.85
2018-08-22T08:21:08.660Z,1013.82
2018-08-22T08:22:08.646Z,1013.83
2018-08-22T08:23:08.623Z,1013.85
2018-08-22T08:24:08.601Z,1013.80
2018-08-22T08:25:08.585Z,1013.78
2018-08-22T08:26:08.641Z,1013.79
2018-08-22T08:27:09.246Z,1013.78
2018-08-22T08:28:11.214Z,1013.79
2018-08-22T08:29:08.505Z,1013.79
2018-08-22T08:30:08.484Z,1013.77
2018-08-22T08:31:08.467Z,1013.77
2018-08-22T08:32:08.443Z,1013.72
2018-08-22T08:33:08.424Z,1013.69
2018-08-22T08:34:08.403Z,1013.71
2018-08-22T08:35:08.381Z,1013.69
2018-08-22T08:36:08.424Z,1013.68
2018-08-22T08:37:11.999Z,1013.65
2018-08-22T08:38:08.363Z,1013.68
2018-08-22T08:39:08.317Z,1013.63
2018-08-22T08:40:08.367Z,1013.63
2018-08-22T08:41:08.434Z,1013.63
2018-08-22T08:42:08.298Z,1013.62
2018-08-22T08:43:08.222Z,1013.61
2018-08-22T08:44:08.666Z,1013.51
2018-08-22T08:45:08.184Z,1013.54
2018-08-22T08:46:08.170Z,1013.52
2018-08-22T08:47:08.165Z,1013.54
2018-08-22T08:48:08.132Z,1013.54
2018-08-22T08:49:08.108Z,1013.54
2018-08-22T08:50:08.088Z,1013.49
2018-08-22T08:51:08.237Z,1013.48
2018-08-22T08:52:08.117Z,1013.49
2018-08-22T08:53:08.042Z,1013.49
2018-08-22T08:54:08.003Z,1013.44
2018-08-22T08:55:08.025Z,1013.45
2018-08-22T08:56:08.099Z,1013.38
2018-08-22T08:57:08.007Z,1013.36
2018-08-22T08:58:12.784Z,1013.39
2018-08-22T08:59:08.067Z,1013.37
2018-08-22T09:00:08.099Z,1013.35
2018-08-22T09:01:08.037Z,1013.35
2018-08-22T09:02:08.947Z,1013.34
2018-08-22T09:03:07.899Z,1013.32
2018-08-22T09:04:07.853Z,1013.29
2018-08-22T09:05:07.798Z,1013.30
2018-08-22T09:06:07.775Z,1013.23
2018-08-22T09:07:07.785Z,1013.26
2018-08-22T09:08:07.739Z,1013.21
2018-08-22T09:09:07.717Z,1013.22
2018-08-22T09:10:07.703Z,1013.21
2018-08-22T09:11:07.690Z,1013.20
2018-08-22T09:12:07.665Z,1013.18
2018-08-22T09:13:07.646Z,1013.17
2018-08-22T09:14:07.654Z,1013.14
2018-08-22T09:15:10.136Z,1013.11
2018-08-22T09:16:07.608Z,1013.08
2018-08-22T09:17:07.725Z,1013.16
2018-08-22T09:18:07.844Z,1013.09
2018-08-22T09:19:07.530Z,1013.09
2018-08-22T09:20:07.516Z,1013.07
2018-08-22T09:21:07.504Z,1013.07
2018-08-22T09:22:07.472Z,1013.05
2018-08-22T09:23:07.464Z,1013.03
2018-08-22T09:24:07.524Z,1013.02
2018-08-22T09:25:09.156Z,1013.01
2018-08-22T09:26:07.406Z,1012.97
2018-08-22T09:27:07.383Z,1012.97
2018-08-22T09:28:07.410Z,1012.93
2018-08-22T09:29:07.352Z,1012.97
2018-08-22T09:30:07.335Z,1012.97
2018-08-22T09:31:07.401Z,1012.94
2018-08-22T09:32:07.295Z,1012.97
2018-08-22T09:33:09.139Z,1012.93
2018-08-22T09:34:07.260Z,1012.94
2018-08-22T09:35:09.143Z,1012.95
2018-08-22T09:36:07.216Z,1012.98
2018-08-22T09:37:07.199Z,1012.95
2018-08-22T09:38:07.186Z,1012.95
2018-08-22T09:39:07.168Z,1012.96
2018-08-22T09:40:07.197Z,1012.92
2018-08-22T09:41:07.131Z,1012.95
2018-08-22T09:42:07.112Z,1012.97
2018-08-22T09:43:07.139Z,1013.00
2018-08-22T09:44:07.075Z,1012.95
2018-08-22T09:45:07.053Z,1013.01
2018-08-22T09:46:07.041Z,1012.99
2018-08-22T09:47:07.016Z,1013.00
2018-08-22T09:48:06.997Z,1012.97
2018-08-22T09:49:06.998Z,1012.98
2018-08-22T09:50:06.965Z,1012.96
2018-08-22T09:51:06.949Z,1012.96
2018-08-22T09:52:06.935Z,1013.00
2018-08-22T09:53:08.643Z,1012.97
2018-08-22T09:54:06.898Z,1012.94
2018-08-22T09:55:06.875Z,1012.95
2018-08-22T09:56:06.907Z,1012.96
2018-08-22T09:57:06.840Z,1012.93
2018-08-22T09:58:06.863Z,1012.93
2018-08-22T09:59:06.836Z,1012.91
2018-08-22T10:00:06.917Z,1012.91
2018-08-22T10:01:06.770Z,1012.84
2018-08-22T10:02:06.750Z,1012.84
2018-08-22T10:03:06.734Z,1012.82
2018-08-22T10:04:08.716Z,1012.82
2018-08-22T10:05:06.701Z,1012.82
2018-08-22T10:06:06.683Z,1012.82
2018-08-22T10:07:06.738Z,1012.76
2018-08-22T10:08:06.890Z,1012.75
2018-08-22T10:09:06.629Z,1012.77
2018-08-22T10:10:07.004Z,1012.73
2018-08-22T10:11:06.805Z,1012.72
2018-08-22T10:12:06.575Z,1012.65
2018-08-22T10:13:06.567Z,1012.67
2018-08-22T10:14:06.541Z,1012.66
2018-08-22T10:15:06.524Z,1012.64
2018-08-22T10:16:06.531Z,1012.61
2018-08-22T10:17:08.193Z,1012.57
2018-08-22T10:18:06.472Z,1012.57
2018-08-22T10:19:06.484Z,1012.59
2018-08-22T10:20:06.496Z,1012.54
2018-08-22T10:21:07.232Z,1012.57
2018-08-22T10:22:07.135Z,1012.54
2018-08-22T10:23:06.638Z,1012.49
2018-08-22T10:24:06.367Z,1012.46
2018-08-22T10:25:08.188Z,1012.48
2018-08-22T10:26:06.327Z,1012.48
2018-08-22T10:27:06.358Z,1012.46
2018-08-22T10:28:06.323Z,1012.44
2018-08-22T10:29:06.439Z,1012.43
2018-08-22T10:30:07.323Z,1012.41
2018-08-22T10:31:06.252Z,1012.46
2018-08-22T10:32:08.160Z,1012.43
2018-08-22T10:33:06.439Z,1012.44
2018-08-22T10:34:06.224Z,1012.41
2018-08-22T10:35:06.209Z,1012.37
2018-08-22T10:36:06.156Z,1012.36
2018-08-22T10:37:06.173Z,1012.35
2018-08-22T10:38:06.128Z,1012.32
2018-08-22T10:39:06.111Z,1012.30
2018-08-22T10:40:06.215Z,1012.39
2018-08-22T10:41:07.668Z,1012.36
2018-08-22T10:42:09.695Z,1012.35
2018-08-22T10:43:09.665Z,1012.36
2018-08-22T10:44:07.658Z,1012.38
2018-08-22T10:45:07.715Z,1012.36
2018-08-22T10:46:06.010Z,1012.37
2018-08-22T10:47:05.975Z,1012.33
2018-08-22T10:48:05.990Z,1012.38
2018-08-22T10:49:05.942Z,1012.42
2018-08-22T10:50:05.925Z,1012.32
2018-08-22T10:51:28.270Z,1012.38
2018-08-22T10:52:28.241Z,1012.33
2018-08-22T10:54:21.567Z,1012.34
2018-08-22T10:55:21.545Z,1012.25
2018-08-22T10:57:26.275Z,1012.32
2018-08-22T10:58:26.239Z,1012.29
2018-08-22T11:00:19.872Z,1012.29
2018-08-22T11:01:19.851Z,1012.26
2018-08-22T11:03:13.218Z,1012.28
2018-08-22T11:04:13.160Z,1012.24
2018-08-22T11:06:06.485Z,1012.22
2018-08-22T11:07:06.464Z,1012.21
2018-08-22T11:08:59.325Z,1012.17
2018-08-22T11:09:59.312Z,1012.21
2018-08-22T11:11:52.600Z,1012.17
2018-08-22T11:12:52.578Z,1012.12
2018-08-22T11:14:45.925Z,1012.08
2018-08-22T11:15:45.910Z,1012.09
2018-08-22T11:17:39.228Z,1012.03
2018-08-22T11:18:39.189Z,1012.05
2018-08-22T11:19:39.172Z,1012.05
2018-08-22T11:20:39.156Z,1012.06
2018-08-22T11:21:39.139Z,1012.05
2018-08-22T11:22:39.123Z,1012.00
2018-08-22T11:23:39.106Z,1012.00
2018-08-22T11:24:39.091Z,1012.06
2018-08-22T11:25:39.072Z,1012.03
2018-08-22T11:26:39.057Z,1012.04
2018-08-22T11:27:39.090Z,1012.04
2018-08-22T11:28:39.020Z,1012.00
2018-08-22T11:29:39.023Z,1011.98
2018-08-22T11:30:38.988Z,1011.95
2018-08-22T11:31:38.973Z,1011.95
2018-08-22T11:32:38.958Z,1011.95
2018-08-22T11:33:38.938Z,1011.94
2018-08-22T11:34:38.922Z,1011.97
2018-08-22T11:35:38.905Z,1011.93
2018-08-22T11:36:38.891Z,1011.94
2018-08-22T11:37:38.872Z,1011.93
2018-08-22T11:38:38.855Z,1011.92
2018-08-22T11:39:38.839Z,1011.90
2018-08-22T11:40:38.820Z,1011.88
2018-08-22T11:41:38.805Z,1011.89
2018-08-22T11:42:38.791Z,1011.94
2018-08-22T11:43:38.774Z,1011.91
2018-08-22T11:44:38.753Z,1011.89
2018-08-22T11:45:38.745Z,1011.88
2018-08-22T11:46:38.733Z,1011.85
2018-08-22T11:47:38.707Z,1011.88
2018-08-22T11:48:38.690Z,1011.84
2018-08-22T11:49:38.675Z,1011.81
2018-08-22T11:50:38.657Z,1011.81
2018-08-22T11:51:38.640Z,1011.76
2018-08-22T11:52:38.626Z,1011.78
2018-08-22T11:53:38.622Z,1011.71
2018-08-22T11:54:38.590Z,1011.73
2018-08-22T11:55:38.576Z,1011.74
2018-08-22T11:56:38.559Z,1011.75
2018-08-22T11:57:38.546Z,1011.72
2018-08-22T11:58:39.316Z,1011.72
2018-08-22T11:59:38.515Z,1011.71
2018-08-22T12:00:38.492Z,1011.69
2018-08-22T12:01:38.477Z,1011.67
2018-08-22T12:02:38.466Z,1011.66
2018-08-22T12:03:38.444Z,1011.65
2018-08-22T12:04:38.427Z,1011.61
2018-08-22T12:05:38.411Z,1011.60
2018-08-22T12:06:38.396Z,1011.62
2018-08-22T12:07:38.411Z,1011.60
2018-08-22T12:08:38.365Z,1011.56
2018-08-22T12:09:38.347Z,1011.58
2018-08-22T12:10:38.362Z,1011.57
2018-08-22T12:11:38.315Z,1011.57
2018-08-22T12:12:38.311Z,1011.55
2018-08-22T12:13:38.283Z,1011.61
2018-08-22T12:14:38.266Z,1011.58
2018-08-22T12:15:38.251Z,1011.55
2018-08-22T12:16:38.233Z,1011.54
2018-08-22T12:17:38.220Z,1011.53
2018-08-22T12:18:38.203Z,1011.55
2018-08-22T12:19:38.186Z,1011.56
2018-08-22T12:20:38.169Z,1011.54
2018-08-22T12:21:42.821Z,1011.52
2018-08-22T12:22:38.823Z,1011.45
2018-08-22T12:23:38.119Z,1011.49
2018-08-22T12:24:38.104Z,1011.45
2018-08-22T12:25:38.822Z,1011.43
2018-08-22T12:26:38.071Z,1011.46
2018-08-22T12:27:38.055Z,1011.45
2018-08-22T12:28:38.042Z,1011.42
2018-08-22T12:29:38.025Z,1011.41
2018-08-22T12:30:38.008Z,1011.41
2018-08-22T12:31:37.991Z,1011.43
2018-08-22T12:32:37.978Z,1011.39
2018-08-22T12:33:37.960Z,1011.37
2018-08-22T12:34:37.944Z,1011.36
2018-08-22T12:35:37.926Z,1011.37
2018-08-22T12:36:37.912Z,1011.37
2018-08-22T12:37:37.945Z,1011.36
2018-08-22T12:38:37.879Z,1011.38
2018-08-22T12:39:37.864Z,1011.38
2018-08-22T12:40:37.849Z,1011.36
2018-08-22T12:41:37.831Z,1011.34
2018-08-22T12:42:37.817Z,1011.38
2018-08-22T12:43:37.798Z,1011.33
2018-08-22T12:44:37.866Z,1011.32